sensor_id;sensor_type;location;lat;lon;timestamp;temperature;humidity
19870;DHT22;10097;50.862;4.696;2023-05-07T00:00:04;16.20;99.90
19870;DHT22;10097;50.862;4.696;2023-05-07T00:02:33;16.20;99.90
19870;DHT22;10097;50.862;4.696;2023-05-07T00:04:59;16.30;99.90
19870;DHT22;10097;50.862;4.696;2023-05-07T00:07:24;16.30;99.90
19870;DHT22;10097;50.862;4.696;2023-05-07T00:09:50;16.30;99.90
19870;DHT22;10097;50.862;4.696;2023-05-07T00:12:16;16.30;99.90
19870;DHT22;10097;50.862;4.696;2023-05-07T00:14:41;16.30;99.90
19870;DHT22;10097;50.862;4.696;2023-05-07T00:17:07;16.40;99.90
19870;DHT22;10097;50.862;4.696;2023-05-07T00:19:33;16.40;99.90
19870;DHT22;10097;50.862;4.696;2023-05-07T00:21:58;16.40;99.90
19870;DHT22;10097;50.862;4.696;2023-05-07T00:24:24;16.40;99.90
19870;DHT22;10097;50.862;4.696;2023-05-07T00:26:50;16.40;99.90
19870;DHT22;10097;50.862;4.696;2023-05-07T00:29:16;16.40;99.90
19870;DHT22;10097;50.862;4.696;2023-05-07T00:31:41;16.40;99.90
19870;DHT22;10097;50.862;4.696;2023-05-07T00:34:07;16.50;99.90
19870;DHT22;10097;50.862;4.696;2023-05-07T00:36:32;16.50;99.90
19870;DHT22;10097;50.862;4.696;2023-05-07T00:39:00;16.50;99.90
19870;DHT22;10097;50.862;4.696;2023-05-07T00:41:27;16.50;99.90
19870;DHT22;10097;50.862;4.696;2023-05-07T00:43:53;16.50;99.90
19870;DHT22;10097;50.862;4.696;2023-05-07T00:46:20;16.50;99.90
19870;DHT22;10097;50.862;4.696;2023-05-07T00:48:46;16.50;99.90
19870;DHT22;10097;50.862;4.696;2023-05-07T00:51:12;16.50;99.90
19870;DHT22;10097;50.862;4.696;2023-05-07T00:53:39;16.50;99.90
19870;DHT22;10097;50.862;4.696;2023-05-07T00:56:05;16.50;99.90
19870;DHT22;10097;50.862;4.696;2023-05-07T00:58:32;16.50;99.90
19870;DHT22;10097;50.862;4.696;2023-05-07T01:00:58;16.50;99.90
19870;DHT22;10097;50.862;4.696;2023-05-07T01:03:24;16.50;99.90
19870;DHT22;10097;50.862;4.696;2023-05-07T01:05:52;16.50;99.90
19870;DHT22;10097;50.862;4.696;2023-05-07T01:08:18;16.50;99.90
19870;DHT22;10097;50.862;4.696;2023-05-07T01:10:44;16.50;99.90
19870;DHT22;10097;50.862;4.696;2023-05-07T01:13:12;16.50;99.90
19870;DHT22;10097;50.862;4.696;2023-05-07T01:15:39;16.50;99.90
19870;DHT22;10097;50.862;4.696;2023-05-07T01:18:06;16.60;99.90
19870;DHT22;10097;50.862;4.696;2023-05-07T01:20:32;16.50;99.90
19870;DHT22;10097;50.862;4.696;2023-05-07T01:22:59;16.50;99.90
19870;DHT22;10097;50.862;4.696;2023-05-07T01:25:25;16.60;99.90
19870;DHT22;10097;50.862;4.696;2023-05-07T01:27:51;16.60;99.90
19870;DHT22;10097;50.862;4.696;2023-05-07T01:30:18;16.60;99.90
19870;DHT22;10097;50.862;4.696;2023-05-07T01:33:01;16.60;99.90
19870;DHT22;10097;50.862;4.696;2023-05-07T01:35:32;16.60;99.90
19870;DHT22;10097;50.862;4.696;2023-05-07T01:38:00;16.60;99.90
19870;DHT22;10097;50.862;4.696;2023-05-07T01:40:27;16.60;99.90
19870;DHT22;10097;50.862;4.696;2023-05-07T01:42:54;16.60;99.90
19870;DHT22;10097;50.862;4.696;2023-05-07T01:45:20;16.60;99.90
19870;DHT22;10097;50.862;4.696;2023-05-07T01:47:45;16.60;99.90
19870;DHT22;10097;50.862;4.696;2023-05-07T01:50:12;16.60;99.90
19870;DHT22;10097;50.862;4.696;2023-05-07T01:52:38;16.60;99.90
19870;DHT22;10097;50.862;4.696;2023-05-07T01:55:05;16.60;99.90
19870;DHT22;10097;50.862;4.696;2023-05-07T01:57:31;16.60;99.90
19870;DHT22;10097;50.862;4.696;2023-05-07T01:59:56;16.60;99.90
19870;DHT22;10097;50.862;4.696;2023-05-07T02:02:22;16.60;99.90
19870;DHT22;10097;50.862;4.696;2023-05-07T02:04:47;16.60;99.90
19870;DHT22;10097;50.862;4.696;2023-05-07T02:07:13;16.60;99.90
19870;DHT22;10097;50.862;4.696;2023-05-07T02:09:39;16.60;99.90
19870;DHT22;10097;50.862;4.696;2023-05-07T02:12:04;16.60;99.90
19870;DHT22;10097;50.862;4.696;2023-05-07T02:14:30;16.60;99.90
19870;DHT22;10097;50.862;4.696;2023-05-07T02:16:56;16.50;99.90
19870;DHT22;10097;50.862;4.696;2023-05-07T02:19:21;16.50;99.90
19870;DHT22;10097;50.862;4.696;2023-05-07T02:21:47;16.50;99.90
19870;DHT22;10097;50.862;4.696;2023-05-07T02:24:13;16.50;99.90
19870;DHT22;10097;50.862;4.696;2023-05-07T02:26:42;16.60;99.90
19870;DHT22;10097;50.862;4.696;2023-05-07T02:29:08;16.50;99.90
19870;DHT22;10097;50.862;4.696;2023-05-07T02:31:33;16.50;99.90
19870;DHT22;10097;50.862;4.696;2023-05-07T02:34:00;16.50;99.90
19870;DHT22;10097;50.862;4.696;2023-05-07T02:36:25;16.50;99.90
19870;DHT22;10097;50.862;4.696;2023-05-07T02:38:52;16.50;99.90
19870;DHT22;10097;50.862;4.696;2023-05-07T02:41:17;16.60;99.90
19870;DHT22;10097;50.862;4.696;2023-05-07T02:43:43;16.50;99.90
19870;DHT22;10097;50.862;4.696;2023-05-07T02:46:09;16.60;99.90
19870;DHT22;10097;50.862;4.696;2023-05-07T02:48:35;16.60;99.90
19870;DHT22;10097;50.862;4.696;2023-05-07T02:51:01;16.60;99.90
19870;DHT22;10097;50.862;4.696;2023-05-07T02:53:27;16.60;99.90
19870;DHT22;10097;50.862;4.696;2023-05-07T02:55:59;16.60;99.90
19870;DHT22;10097;50.862;4.696;2023-05-07T02:58:25;16.50;99.90
19870;DHT22;10097;50.862;4.696;2023-05-07T03:00:51;16.50;99.90
19870;DHT22;10097;50.862;4.696;2023-05-07T03:03:18;16.40;99.90
19870;DHT22;10097;50.862;4.696;2023-05-07T03:05:43;16.30;99.90
19870;DHT22;10097;50.862;4.696;2023-05-07T03:08:09;16.30;99.90
19870;DHT22;10097;50.862;4.696;2023-05-07T03:10:36;16.20;99.90
19870;DHT22;10097;50.862;4.696;2023-05-07T03:13:02;16.10;99.90
19870;DHT22;10097;50.862;4.696;2023-05-07T03:15:28;16.10;99.90
19870;DHT22;10097;50.862;4.696;2023-05-07T03:17:53;16.10;99.90
19870;DHT22;10097;50.862;4.696;2023-05-07T03:20:19;16.10;99.90
19870;DHT22;10097;50.862;4.696;2023-05-07T03:22:45;16.20;99.90
19870;DHT22;10097;50.862;4.696;2023-05-07T03:25:12;16.20;99.90
19870;DHT22;10097;50.862;4.696;2023-05-07T03:27:38;16.20;99.90
19870;DHT22;10097;50.862;4.696;2023-05-07T03:30:04;16.20;99.90
19870;DHT22;10097;50.862;4.696;2023-05-07T03:32:29;16.20;99.90
19870;DHT22;10097;50.862;4.696;2023-05-07T03:34:55;16.20;99.90
19870;DHT22;10097;50.862;4.696;2023-05-07T03:37:21;16.30;99.90
19870;DHT22;10097;50.862;4.696;2023-05-07T03:39:47;16.30;99.90
19870;DHT22;10097;50.862;4.696;2023-05-07T03:42:12;16.20;99.90
19870;DHT22;10097;50.862;4.696;2023-05-07T03:44:38;16.10;99.90
19870;DHT22;10097;50.862;4.696;2023-05-07T03:47:04;16.20;99.90
19870;DHT22;10097;50.862;4.696;2023-05-07T03:49:30;16.20;99.90
19870;DHT22;10097;50.862;4.696;2023-05-07T03:51:55;16.20;99.90
19870;DHT22;10097;50.862;4.696;2023-05-07T03:54:22;16.20;99.90
19870;DHT22;10097;50.862;4.696;2023-05-07T03:56:47;16.20;99.90
19870;DHT22;10097;50.862;4.696;2023-05-07T03:59:13;16.30;99.90
19870;DHT22;10097;50.862;4.696;2023-05-07T04:01:39;16.30;99.90
19870;DHT22;10097;50.862;4.696;2023-05-07T04:04:05;16.20;99.90
19870;DHT22;10097;50.862;4.696;2023-05-07T04:06:31;16.20;99.90
19870;DHT22;10097;50.862;4.696;2023-05-07T04:08:57;16.30;99.90
19870;DHT22;10097;50.862;4.696;2023-05-07T04:11:23;16.30;99.90
19870;DHT22;10097;50.862;4.696;2023-05-07T04:13:48;16.30;99.90
19870;DHT22;10097;50.862;4.696;2023-05-07T04:16:14;16.30;99.90
19870;DHT22;10097;50.862;4.696;2023-05-07T04:18:41;16.30;99.90
19870;DHT22;10097;50.862;4.696;2023-05-07T04:21:14;16.30;99.90
19870;DHT22;10097;50.862;4.696;2023-05-07T04:23:40;16.30;99.90
19870;DHT22;10097;50.862;4.696;2023-05-07T04:26:05;16.30;99.90
19870;DHT22;10097;50.862;4.696;2023-05-07T04:28:32;16.30;99.90
19870;DHT22;10097;50.862;4.696;2023-05-07T04:30:57;16.40;99.90
19870;DHT22;10097;50.862;4.696;2023-05-07T04:33:23;16.40;99.90
19870;DHT22;10097;50.862;4.696;2023-05-07T04:35:49;16.40;99.90
19870;DHT22;10097;50.862;4.696;2023-05-07T04:38:15;16.40;99.90
19870;DHT22;10097;50.862;4.696;2023-05-07T04:40:40;16.40;99.90
19870;DHT22;10097;50.862;4.696;2023-05-07T04:43:06;16.40;99.90
19870;DHT22;10097;50.862;4.696;2023-05-07T04:45:34;16.40;99.90
19870;DHT22;10097;50.862;4.696;2023-05-07T04:48:00;16.40;99.90
19870;DHT22;10097;50.862;4.696;2023-05-07T04:50:26;16.40;99.90
19870;DHT22;10097;50.862;4.696;2023-05-07T04:52:52;16.40;99.90
19870;DHT22;10097;50.862;4.696;2023-05-07T04:55:17;16.40;99.90
19870;DHT22;10097;50.862;4.696;2023-05-07T04:57:43;16.40;99.90
19870;DHT22;10097;50.862;4.696;2023-05-07T05:00:09;16.40;99.90
19870;DHT22;10097;50.862;4.696;2023-05-07T05:02:35;16.40;99.90
19870;DHT22;10097;50.862;4.696;2023-05-07T05:05:01;16.50;99.90
19870;DHT22;10097;50.862;4.696;2023-05-07T05:07:28;16.60;99.90
19870;DHT22;10097;50.862;4.696;2023-05-07T05:09:54;16.70;99.90
19870;DHT22;10097;50.862;4.696;2023-05-07T05:12:20;16.70;99.90
19870;DHT22;10097;50.862;4.696;2023-05-07T05:14:45;16.90;99.90
19870;DHT22;10097;50.862;4.696;2023-05-07T05:17:11;16.90;99.90
19870;DHT22;10097;50.862;4.696;2023-05-07T05:19:36;17.00;99.90
19870;DHT22;10097;50.862;4.696;2023-05-07T05:22:02;17.00;99.90
19870;DHT22;10097;50.862;4.696;2023-05-07T05:24:30;17.10;99.90
19870;DHT22;10097;50.862;4.696;2023-05-07T05:26:55;17.20;99.90
19870;DHT22;10097;50.862;4.696;2023-05-07T05:29:21;17.30;99.90
19870;DHT22;10097;50.862;4.696;2023-05-07T05:31:47;17.30;99.90
19870;DHT22;10097;50.862;4.696;2023-05-07T05:34:13;17.40;99.90
19870;DHT22;10097;50.862;4.696;2023-05-07T05:36:38;17.50;99.90
19870;DHT22;10097;50.862;4.696;2023-05-07T05:39:04;17.60;99.90
19870;DHT22;10097;50.862;4.696;2023-05-07T05:41:30;17.60;99.90
19870;DHT22;10097;50.862;4.696;2023-05-07T05:43:55;17.70;99.90
19870;DHT22;10097;50.862;4.696;2023-05-07T05:46:21;17.70;99.90
19870;DHT22;10097;50.862;4.696;2023-05-07T05:48:47;17.70;99.90
19870;DHT22;10097;50.862;4.696;2023-05-07T05:51:12;17.80;99.90
19870;DHT22;10097;50.862;4.696;2023-05-07T05:53:38;17.80;99.90
19870;DHT22;10097;50.862;4.696;2023-05-07T05:56:04;17.80;99.90
19870;DHT22;10097;50.862;4.696;2023-05-07T05:58:30;17.80;99.90
19870;DHT22;10097;50.862;4.696;2023-05-07T06:00:55;18.00;99.90
19870;DHT22;10097;50.862;4.696;2023-05-07T06:03:22;18.10;99.90
19870;DHT22;10097;50.862;4.696;2023-05-07T06:05:47;18.10;99.90
19870;DHT22;10097;50.862;4.696;2023-05-07T06:08:13;18.10;99.90
19870;DHT22;10097;50.862;4.696;2023-05-07T06:10:39;18.00;99.90
19870;DHT22;10097;50.862;4.696;2023-05-07T06:13:05;18.00;99.90
19870;DHT22;10097;50.862;4.696;2023-05-07T06:15:30;18.10;99.90
19870;DHT22;10097;50.862;4.696;2023-05-07T06:17:56;18.00;99.90
19870;DHT22;10097;50.862;4.696;2023-05-07T06:20:23;18.00;99.90
19870;DHT22;10097;50.862;4.696;2023-05-07T06:22:48;18.00;99.90
19870;DHT22;10097;50.862;4.696;2023-05-07T06:25:14;18.20;99.90
19870;DHT22;10097;50.862;4.696;2023-05-07T06:27:40;18.20;99.90
19870;DHT22;10097;50.862;4.696;2023-05-07T06:30:07;18.30;99.90
19870;DHT22;10097;50.862;4.696;2023-05-07T06:32:33;18.50;99.90
19870;DHT22;10097;50.862;4.696;2023-05-07T06:34:59;18.50;99.90
19870;DHT22;10097;50.862;4.696;2023-05-07T06:37:25;18.40;99.90
19870;DHT22;10097;50.862;4.696;2023-05-07T06:39:50;18.20;99.90
19870;DHT22;10097;50.862;4.696;2023-05-07T06:42:16;18.10;99.90
19870;DHT22;10097;50.862;4.696;2023-05-07T06:44:43;17.90;99.90
19870;DHT22;10097;50.862;4.696;2023-05-07T06:47:08;17.70;99.90
19870;DHT22;10097;50.862;4.696;2023-05-07T06:49:34;17.40;99.90
19870;DHT22;10097;50.862;4.696;2023-05-07T06:52:00;17.30;99.90
19870;DHT22;10097;50.862;4.696;2023-05-07T06:54:25;17.40;99.90
19870;DHT22;10097;50.862;4.696;2023-05-07T06:56:51;17.50;99.90
19870;DHT22;10097;50.862;4.696;2023-05-07T06:59:17;17.70;99.90
19870;DHT22;10097;50.862;4.696;2023-05-07T07:01:42;17.80;99.90
19870;DHT22;10097;50.862;4.696;2023-05-07T07:04:08;18.10;99.90
19870;DHT22;10097;50.862;4.696;2023-05-07T07:06:34;18.20;99.90
19870;DHT22;10097;50.862;4.696;2023-05-07T07:09:00;18.40;99.90
19870;DHT22;10097;50.862;4.696;2023-05-07T07:11:27;18.50;99.90
19870;DHT22;10097;50.862;4.696;2023-05-07T07:13:53;18.60;99.90
19870;DHT22;10097;50.862;4.696;2023-05-07T07:16:20;18.60;99.90
19870;DHT22;10097;50.862;4.696;2023-05-07T07:18:46;18.70;99.90
19870;DHT22;10097;50.862;4.696;2023-05-07T07:21:11;18.90;99.90
19870;DHT22;10097;50.862;4.696;2023-05-07T07:23:37;18.90;99.90
19870;DHT22;10097;50.862;4.696;2023-05-07T07:26:03;19.00;99.90
19870;DHT22;10097;50.862;4.696;2023-05-07T07:28:28;19.00;99.90
19870;DHT22;10097;50.862;4.696;2023-05-07T07:30:54;18.70;99.90
19870;DHT22;10097;50.862;4.696;2023-05-07T07:33:20;18.60;99.90
19870;DHT22;10097;50.862;4.696;2023-05-07T07:35:45;18.60;99.90
19870;DHT22;10097;50.862;4.696;2023-05-07T07:38:11;18.50;99.90
19870;DHT22;10097;50.862;4.696;2023-05-07T07:40:37;18.40;99.90
19870;DHT22;10097;50.862;4.696;2023-05-07T07:43:02;18.60;99.90
19870;DHT22;10097;50.862;4.696;2023-05-07T07:45:28;18.70;99.90
19870;DHT22;10097;50.862;4.696;2023-05-07T07:47:54;18.60;99.90
19870;DHT22;10097;50.862;4.696;2023-05-07T07:50:20;18.50;99.90
19870;DHT22;10097;50.862;4.696;2023-05-07T07:52:46;18.50;99.90
19870;DHT22;10097;50.862;4.696;2023-05-07T07:55:12;18.40;99.90
19870;DHT22;10097;50.862;4.696;2023-05-07T07:57:37;18.40;99.90
19870;DHT22;10097;50.862;4.696;2023-05-07T08:00:04;18.40;99.90
19870;DHT22;10097;50.862;4.696;2023-05-07T08:02:31;18.20;99.90
19870;DHT22;10097;50.862;4.696;2023-05-07T08:04:56;18.20;99.90
19870;DHT22;10097;50.862;4.696;2023-05-07T08:07:22;18.20;99.90
19870;DHT22;10097;50.862;4.696;2023-05-07T08:09:48;18.20;99.90
19870;DHT22;10097;50.862;4.696;2023-05-07T08:12:14;18.40;99.90
19870;DHT22;10097;50.862;4.696;2023-05-07T08:14:41;18.40;99.90
19870;DHT22;10097;50.862;4.696;2023-05-07T08:17:07;18.40;99.90
19870;DHT22;10097;50.862;4.696;2023-05-07T08:19:32;18.40;99.90
19870;DHT22;10097;50.862;4.696;2023-05-07T08:21:58;18.30;99.90
19870;DHT22;10097;50.862;4.696;2023-05-07T08:24:24;18.40;99.90
19870;DHT22;10097;50.862;4.696;2023-05-07T08:26:49;18.50;99.90
19870;DHT22;10097;50.862;4.696;2023-05-07T08:29:15;18.50;99.90
19870;DHT22;10097;50.862;4.696;2023-05-07T08:31:41;18.50;99.90
19870;DHT22;10097;50.862;4.696;2023-05-07T08:34:06;18.60;99.90
19870;DHT22;10097;50.862;4.696;2023-05-07T08:36:33;18.60;99.90
19870;DHT22;10097;50.862;4.696;2023-05-07T08:38:59;18.50;99.90
19870;DHT22;10097;50.862;4.696;2023-05-07T08:41:25;18.50;99.90
19870;DHT22;10097;50.862;4.696;2023-05-07T08:43:51;18.60;99.90
19870;DHT22;10097;50.862;4.696;2023-05-07T08:46:21;18.60;99.90
19870;DHT22;10097;50.862;4.696;2023-05-07T08:48:51;18.60;99.90
19870;DHT22;10097;50.862;4.696;2023-05-07T08:51:21;18.60;99.90
19870;DHT22;10097;50.862;4.696;2023-05-07T08:53:48;18.70;99.90
19870;DHT22;10097;50.862;4.696;2023-05-07T08:56:14;18.60;99.90
19870;DHT22;10097;50.862;4.696;2023-05-07T08:58:44;18.50;99.90
19870;DHT22;10097;50.862;4.696;2023-05-07T09:01:13;18.30;99.90
19870;DHT22;10097;50.862;4.696;2023-05-07T09:03:39;18.20;99.90
19870;DHT22;10097;50.862;4.696;2023-05-07T09:06:05;18.10;99.90
19870;DHT22;10097;50.862;4.696;2023-05-07T09:08:33;18.00;99.90
19870;DHT22;10097;50.862;4.696;2023-05-07T09:10:59;17.80;99.90
19870;DHT22;10097;50.862;4.696;2023-05-07T09:13:26;17.80;99.90
19870;DHT22;10097;50.862;4.696;2023-05-07T09:15:52;17.90;99.90
19870;DHT22;10097;50.862;4.696;2023-05-07T09:18:18;17.80;99.90
19870;DHT22;10097;50.862;4.696;2023-05-07T09:20:43;17.70;99.90
19870;DHT22;10097;50.862;4.696;2023-05-07T09:23:09;17.80;99.90
19870;DHT22;10097;50.862;4.696;2023-05-07T09:25:36;17.90;99.90
19870;DHT22;10097;50.862;4.696;2023-05-07T09:28:03;18.00;99.90
19870;DHT22;10097;50.862;4.696;2023-05-07T09:30:33;18.10;99.90
19870;DHT22;10097;50.862;4.696;2023-05-07T09:33:01;18.20;99.90
19870;DHT22;10097;50.862;4.696;2023-05-07T09:35:27;18.20;99.90
19870;DHT22;10097;50.862;4.696;2023-05-07T09:37:53;18.30;99.90
19870;DHT22;10097;50.862;4.696;2023-05-07T09:40:27;18.30;99.90
19870;DHT22;10097;50.862;4.696;2023-05-07T09:42:54;18.40;99.90
19870;DHT22;10097;50.862;4.696;2023-05-07T09:45:28;18.60;99.90
19870;DHT22;10097;50.862;4.696;2023-05-07T09:47:58;18.50;99.90
19870;DHT22;10097;50.862;4.696;2023-05-07T09:50:27;18.50;99.90
19870;DHT22;10097;50.862;4.696;2023-05-07T09:52:57;18.40;99.90
19870;DHT22;10097;50.862;4.696;2023-05-07T09:55:23;18.30;99.90
19870;DHT22;10097;50.862;4.696;2023-05-07T09:57:53;18.30;99.90
19870;DHT22;10097;50.862;4.696;2023-05-07T10:00:20;18.20;99.90
19870;DHT22;10097;50.862;4.696;2023-05-07T10:02:49;18.40;99.90
19870;DHT22;10097;50.862;4.696;2023-05-07T10:05:18;18.40;99.90
19870;DHT22;10097;50.862;4.696;2023-05-07T10:07:45;18.40;99.90
19870;DHT22;10097;50.862;4.696;2023-05-07T10:10:11;18.40;99.90
19870;DHT22;10097;50.862;4.696;2023-05-07T10:12:38;18.30;99.90
19870;DHT22;10097;50.862;4.696;2023-05-07T10:15:09;18.40;99.90
19870;DHT22;10097;50.862;4.696;2023-05-07T10:17:39;18.40;99.90
19870;DHT22;10097;50.862;4.696;2023-05-07T10:20:06;18.50;99.90
19870;DHT22;10097;50.862;4.696;2023-05-07T10:22:41;18.60;99.90
19870;DHT22;10097;50.862;4.696;2023-05-07T10:25:18;18.70;99.90
19870;DHT22;10097;50.862;4.696;2023-05-07T10:27:47;18.80;99.90
19870;DHT22;10097;50.862;4.696;2023-05-07T10:32:50;18.50;99.90
19870;DHT22;10097;50.862;4.696;2023-05-07T10:35:25;18.60;99.90
19870;DHT22;10097;50.862;4.696;2023-05-07T10:37:51;18.60;99.90
19870;DHT22;10097;50.862;4.696;2023-05-07T10:40:18;18.50;99.90
19870;DHT22;10097;50.862;4.696;2023-05-07T10:42:59;18.50;99.90
19870;DHT22;10097;50.862;4.696;2023-05-07T10:45:26;18.50;99.90
19870;DHT22;10097;50.862;4.696;2023-05-07T10:48:08;18.60;99.90
19870;DHT22;10097;50.862;4.696;2023-05-07T10:50:34;18.50;99.90
19870;DHT22;10097;50.862;4.696;2023-05-07T10:53:21;18.70;99.90
19870;DHT22;10097;50.862;4.696;2023-05-07T10:58:44;18.70;99.90
19870;DHT22;10097;50.862;4.696;2023-05-07T11:01:10;18.70;99.90
19870;DHT22;10097;50.862;4.696;2023-05-07T11:04:16;18.50;99.90
19870;DHT22;10097;50.862;4.696;2023-05-07T11:09:57;18.30;99.90
19870;DHT22;10097;50.862;4.696;2023-05-07T11:15:11;18.70;99.90
19870;DHT22;10097;50.862;4.696;2023-05-07T11:17:57;18.60;99.90
19870;DHT22;10097;50.862;4.696;2023-05-07T11:26:13;18.60;99.90
19870;DHT22;10097;50.862;4.696;2023-05-07T11:28:43;18.60;99.90
19870;DHT22;10097;50.862;4.696;2023-05-07T11:31:09;18.60;99.90
19870;DHT22;10097;50.862;4.696;2023-05-07T11:33:37;18.70;99.90
19870;DHT22;10097;50.862;4.696;2023-05-07T11:36:04;18.70;99.90
19870;DHT22;10097;50.862;4.696;2023-05-07T11:38:34;18.70;99.90
19870;DHT22;10097;50.862;4.696;2023-05-07T11:41:00;18.70;99.90
19870;DHT22;10097;50.862;4.696;2023-05-07T11:43:27;18.70;99.90
19870;DHT22;10097;50.862;4.696;2023-05-07T11:45:53;18.90;99.90
19870;DHT22;10097;50.862;4.696;2023-05-07T11:48:21;19.10;99.90
19870;DHT22;10097;50.862;4.696;2023-05-07T11:53:17;19.40;99.90
19870;DHT22;10097;50.862;4.696;2023-05-07T11:55:43;19.40;99.90
19870;DHT22;10097;50.862;4.696;2023-05-07T11:58:11;19.50;99.90
19870;DHT22;10097;50.862;4.696;2023-05-07T12:00:37;19.80;99.90
19870;DHT22;10097;50.862;4.696;2023-05-07T12:03:04;20.00;99.90
19870;DHT22;10097;50.862;4.696;2023-05-07T12:05:30;20.20;99.90
19870;DHT22;10097;50.862;4.696;2023-05-07T12:07:57;20.50;99.90
19870;DHT22;10097;50.862;4.696;2023-05-07T12:10:22;20.90;99.90
19870;DHT22;10097;50.862;4.696;2023-05-07T12:12:50;21.30;99.90
19870;DHT22;10097;50.862;4.696;2023-05-07T12:15:17;21.70;99.90
19870;DHT22;10097;50.862;4.696;2023-05-07T12:17:43;21.80;99.90
19870;DHT22;10097;50.862;4.696;2023-05-07T12:20:10;21.90;99.90
19870;DHT22;10097;50.862;4.696;2023-05-07T12:22:36;21.90;99.90
19870;DHT22;10097;50.862;4.696;2023-05-07T12:25:02;21.90;99.90
19870;DHT22;10097;50.862;4.696;2023-05-07T12:27:28;21.90;99.90
19870;DHT22;10097;50.862;4.696;2023-05-07T12:29:54;21.70;99.90
19870;DHT22;10097;50.862;4.696;2023-05-07T12:32:21;21.70;99.90
19870;DHT22;10097;50.862;4.696;2023-05-07T12:34:49;21.50;99.90
19870;DHT22;10097;50.862;4.696;2023-05-07T12:37:16;21.40;99.90
19870;DHT22;10097;50.862;4.696;2023-05-07T12:39:47;21.50;99.90
19870;DHT22;10097;50.862;4.696;2023-05-07T12:42:19;21.40;99.90
19870;DHT22;10097;50.862;4.696;2023-05-07T12:44:46;21.40;99.90
19870;DHT22;10097;50.862;4.696;2023-05-07T12:47:12;21.20;99.90
19870;DHT22;10097;50.862;4.696;2023-05-07T12:49:38;21.20;99.90
19870;DHT22;10097;50.862;4.696;2023-05-07T12:52:05;21.10;99.90
19870;DHT22;10097;50.862;4.696;2023-05-07T12:54:32;21.00;99.90
19870;DHT22;10097;50.862;4.696;2023-05-07T12:57:08;20.70;99.90
19870;DHT22;10097;50.862;4.696;2023-05-07T12:59:38;20.80;99.90
19870;DHT22;10097;50.862;4.696;2023-05-07T13:02:12;20.90;99.90
19870;DHT22;10097;50.862;4.696;2023-05-07T13:04:38;20.90;99.90
19870;DHT22;10097;50.862;4.696;2023-05-07T13:07:03;21.00;99.90
19870;DHT22;10097;50.862;4.696;2023-05-07T13:09:30;21.20;99.90
19870;DHT22;10097;50.862;4.696;2023-05-07T13:11:56;21.20;99.90
19870;DHT22;10097;50.862;4.696;2023-05-07T13:14:21;21.10;99.90
19870;DHT22;10097;50.862;4.696;2023-05-07T13:16:48;21.20;99.90
19870;DHT22;10097;50.862;4.696;2023-05-07T13:19:13;21.30;99.90
19870;DHT22;10097;50.862;4.696;2023-05-07T13:21:39;21.50;99.90
19870;DHT22;10097;50.862;4.696;2023-05-07T13:24:05;21.80;99.90
19870;DHT22;10097;50.862;4.696;2023-05-07T13:26:31;21.90;99.90
19870;DHT22;10097;50.862;4.696;2023-05-07T13:28:57;21.90;99.90
19870;DHT22;10097;50.862;4.696;2023-05-07T13:31:23;21.90;99.90
19870;DHT22;10097;50.862;4.696;2023-05-07T13:33:49;22.20;99.90
19870;DHT22;10097;50.862;4.696;2023-05-07T13:36:14;22.40;99.90
19870;DHT22;10097;50.862;4.696;2023-05-07T13:38:40;22.50;99.90
19870;DHT22;10097;50.862;4.696;2023-05-07T13:41:06;22.40;99.90
19870;DHT22;10097;50.862;4.696;2023-05-07T13:43:31;22.50;99.90
19870;DHT22;10097;50.862;4.696;2023-05-07T13:45:59;22.70;99.90
19870;DHT22;10097;50.862;4.696;2023-05-07T13:48:25;22.80;99.90
19870;DHT22;10097;50.862;4.696;2023-05-07T13:50:51;22.80;99.90
19870;DHT22;10097;50.862;4.696;2023-05-07T13:53:17;22.80;99.90
19870;DHT22;10097;50.862;4.696;2023-05-07T13:55:44;22.70;99.90
19870;DHT22;10097;50.862;4.696;2023-05-07T13:58:10;22.50;99.90
19870;DHT22;10097;50.862;4.696;2023-05-07T14:00:36;21.90;99.90
19870;DHT22;10097;50.862;4.696;2023-05-07T14:03:02;21.50;99.90
19870;DHT22;10097;50.862;4.696;2023-05-07T14:05:27;21.50;99.90
19870;DHT22;10097;50.862;4.696;2023-05-07T14:07:54;21.20;99.90
19870;DHT22;10097;50.862;4.696;2023-05-07T14:10:20;21.10;99.90
19870;DHT22;10097;50.862;4.696;2023-05-07T14:12:46;21.20;99.90
19870;DHT22;10097;50.862;4.696;2023-05-07T14:15:12;21.20;99.90
19870;DHT22;10097;50.862;4.696;2023-05-07T14:17:37;21.10;99.90
19870;DHT22;10097;50.862;4.696;2023-05-07T14:20:04;21.00;99.90
19870;DHT22;10097;50.862;4.696;2023-05-07T14:22:31;21.10;99.90
19870;DHT22;10097;50.862;4.696;2023-05-07T14:24:57;21.20;99.90
19870;DHT22;10097;50.862;4.696;2023-05-07T14:27:22;21.20;99.90
19870;DHT22;10097;50.862;4.696;2023-05-07T14:29:48;21.00;99.90
19870;DHT22;10097;50.862;4.696;2023-05-07T14:32:17;21.00;99.90
19870;DHT22;10097;50.862;4.696;2023-05-07T14:34:43;20.80;99.90
19870;DHT22;10097;50.862;4.696;2023-05-07T14:37:09;20.90;99.90
19870;DHT22;10097;50.862;4.696;2023-05-07T14:39:35;20.90;99.90
19870;DHT22;10097;50.862;4.696;2023-05-07T14:42:01;20.80;99.90
19870;DHT22;10097;50.862;4.696;2023-05-07T14:44:27;20.80;99.90
19870;DHT22;10097;50.862;4.696;2023-05-07T14:46:52;20.90;99.90
19870;DHT22;10097;50.862;4.696;2023-05-07T14:49:18;21.00;99.90
19870;DHT22;10097;50.862;4.696;2023-05-07T14:51:45;20.90;99.90
19870;DHT22;10097;50.862;4.696;2023-05-07T14:54:11;20.90;99.90
19870;DHT22;10097;50.862;4.696;2023-05-07T14:56:36;21.00;99.90
19870;DHT22;10097;50.862;4.696;2023-05-07T14:59:03;21.00;99.90
19870;DHT22;10097;50.862;4.696;2023-05-07T15:01:29;21.00;99.90
19870;DHT22;10097;50.862;4.696;2023-05-07T15:03:54;21.10;99.90
19870;DHT22;10097;50.862;4.696;2023-05-07T15:06:21;21.10;99.90
19870;DHT22;10097;50.862;4.696;2023-05-07T15:08:47;21.00;99.90
19870;DHT22;10097;50.862;4.696;2023-05-07T15:11:14;21.00;99.90
19870;DHT22;10097;50.862;4.696;2023-05-07T15:13:41;20.90;99.90
19870;DHT22;10097;50.862;4.696;2023-05-07T15:16:07;20.90;99.90
19870;DHT22;10097;50.862;4.696;2023-05-07T15:18:33;21.00;99.90
19870;DHT22;10097;50.862;4.696;2023-05-07T15:20:58;21.00;99.90
19870;DHT22;10097;50.862;4.696;2023-05-07T15:23:24;21.10;99.90
19870;DHT22;10097;50.862;4.696;2023-05-07T15:25:51;21.20;99.90
19870;DHT22;10097;50.862;4.696;2023-05-07T15:28:17;21.30;99.90
19870;DHT22;10097;50.862;4.696;2023-05-07T15:30:43;21.40;99.90
19870;DHT22;10097;50.862;4.696;2023-05-07T15:33:09;21.50;99.90
19870;DHT22;10097;50.862;4.696;2023-05-07T15:35:35;21.60;99.90
19870;DHT22;10097;50.862;4.696;2023-05-07T15:38:00;21.70;99.90
19870;DHT22;10097;50.862;4.696;2023-05-07T15:40:29;21.80;99.90
19870;DHT22;10097;50.862;4.696;2023-05-07T15:42:55;21.80;99.90
19870;DHT22;10097;50.862;4.696;2023-05-07T15:45:24;21.90;99.90